createdAt,value
2019-03-17T00:00:35.730Z,99603.80
2019-03-17T00:03:04.839Z,99597.66
2019-03-17T00:05:33.954Z,99595.41
2019-03-17T00:08:03.083Z,99583.36
2019-03-17T00:10:32.185Z,99578.00
2019-03-17T00:13:01.392Z,99577.86
2019-03-17T00:15:30.804Z,99576.44
2019-03-17T00:17:59.897Z,99564.22
2019-03-17T00:20:29.013Z,99549.45
2019-03-17T00:22:58.172Z,99545.41
2019-03-17T00:25:27.332Z,99540.60
2019-03-17T00:27:56.455Z,99548.69
2019-03-17T00:30:25.580Z,99540.36
2019-03-17T00:32:54.686Z,99534.38
2019-03-17T00:35:23.793Z,99538.74
2019-03-17T00:37:52.955Z,99534.02
2019-03-17T00:40:22.098Z,99535.68
2019-03-17T00:42:51.257Z,99522.23
2019-03-17T00:45:36.514Z,99518.38
2019-03-17T00:48:05.581Z,99518.24
2019-03-17T00:50:34.703Z,99518.88
2019-03-17T00:53:03.886Z,99510.16
2019-03-17T00:55:33.013Z,99505.95
2019-03-17T00:58:02.147Z,99514.55
2019-03-17T01:00:31.449Z,99502.18
2019-03-17T01:03:00.576Z,99504.64
2019-03-17T01:05:31.261Z,99495.02
2019-03-17T01:08:00.717Z,99490.92
2019-03-17T01:10:29.845Z,99486.88
2019-03-17T01:12:58.964Z,99482.72
2019-03-17T01:15:28.087Z,99475.02
2019-03-17T01:17:57.197Z,99487.20
2019-03-17T01:20:26.330Z,99469.00
2019-03-17T01:22:55.468Z,99469.61
2019-03-17T01:25:24.822Z,99469.66
2019-03-17T01:27:54.194Z,99448.65
2019-03-17T01:30:23.329Z,99467.77
2019-03-17T01:32:52.445Z,99462.23
2019-03-17T01:35:21.559Z,99463.30
2019-03-17T01:37:50.675Z,99460.34
2019-03-17T01:40:19.795Z,99455.27
2019-03-17T01:42:48.901Z,99442.23
2019-03-17T01:45:18.031Z,99445.70
2019-03-17T01:47:47.141Z,99443.57
2019-03-17T01:50:16.259Z,99431.42
2019-03-17T01:52:45.387Z,99432.75
2019-03-17T01:55:14.547Z,99429.09
2019-03-17T01:57:43.656Z,99433.03
2019-03-17T02:00:13.994Z,99428.44
2019-03-17T02:02:43.099Z,99430.68
2019-03-17T02:05:21.439Z,99426.64
2019-03-17T02:07:43.068Z,99444.64
2019-03-17T02:10:12.182Z,99419.64
2019-03-17T02:12:41.291Z,99434.72
2019-03-17T02:15:10.410Z,99419.31
2019-03-17T02:17:39.519Z,99413.85
2019-03-17T02:20:10.747Z,99409.23
2019-03-17T02:22:39.867Z,99412.88
2019-03-17T02:25:08.980Z,99408.89
2019-03-17T02:27:38.086Z,99394.82
2019-03-17T02:30:12.589Z,99393.75
2019-03-17T02:32:41.709Z,99397.41
2019-03-17T02:35:10.812Z,99394.52
2019-03-17T02:37:39.929Z,99393.92
2019-03-17T02:40:09.277Z,99389.72
2019-03-17T02:42:38.389Z,99394.17
2019-03-17T02:45:10.200Z,99393.34
2019-03-17T02:47:39.305Z,99389.83
2019-03-17T02:50:09.758Z,99383.11
2019-03-17T02:52:38.893Z,99375.48
2019-03-17T02:55:09.151Z,99373.03
2019-03-17T02:57:38.247Z,99371.94
2019-03-17T03:00:10.899Z,99367.52
2019-03-17T03:02:40.026Z,99361.08
2019-03-17T03:05:09.504Z,99369.13
2019-03-17T03:07:38.768Z,99368.26
2019-03-17T03:10:07.875Z,99369.52
2019-03-17T03:12:37.002Z,99346.28
2019-03-17T03:15:08.519Z,99351.08
2019-03-17T03:17:37.631Z,99352.26
2019-03-17T03:20:08.845Z,99351.22
2019-03-17T03:22:37.981Z,99345.95
2019-03-17T03:25:09.040Z,99355.48
2019-03-17T03:27:38.123Z,99354.01
2019-03-17T03:30:11.568Z,99356.05
2019-03-17T03:32:40.689Z,99357.77
2019-03-17T03:35:10.290Z,99351.30
2019-03-17T03:37:38.828Z,99351.61
2019-03-17T03:40:11.362Z,99354.19
2019-03-17T03:42:40.472Z,99355.78
2019-03-17T03:45:12.002Z,99359.95
2019-03-17T03:47:41.140Z,99360.30
2019-03-17T03:50:11.613Z,99357.75
2019-03-17T03:52:40.820Z,99355.57
2019-03-17T03:55:10.131Z,99350.08
2019-03-17T03:57:39.237Z,99350.86
2019-03-17T04:00:15.887Z,99359.08
2019-03-17T04:02:44.995Z,99358.33
2019-03-17T04:05:14.105Z,99396.08
2019-03-17T04:07:43.438Z,99437.56
2019-03-17T04:10:12.550Z,99444.20
2019-03-17T04:12:41.716Z,99456.88
2019-03-17T04:15:11.860Z,99464.57
2019-03-17T04:17:57.667Z,99468.33
2019-03-17T04:20:27.231Z,99474.38
2019-03-17T04:22:56.723Z,99478.62
2019-03-17T04:25:25.820Z,99483.30
2019-03-17T04:27:55.000Z,99470.44
2019-03-17T04:30:24.332Z,99471.92
2019-03-17T04:32:53.464Z,99494.69
2019-03-17T04:35:22.688Z,99501.73
2019-03-17T04:37:51.783Z,99494.75
2019-03-17T04:40:20.911Z,99508.00
2019-03-17T04:42:50.123Z,99510.52
2019-03-17T04:45:19.231Z,99496.20
2019-03-17T04:47:48.348Z,99500.91
2019-03-17T04:50:17.483Z,99512.03
2019-03-17T04:52:46.585Z,99511.47
2019-03-17T04:55:15.696Z,99503.90
2019-03-17T04:57:44.858Z,99498.14
2019-03-17T05:00:14.285Z,99508.95
2019-03-17T05:02:43.393Z,99500.70
2019-03-17T05:05:12.525Z,99511.30
2019-03-17T05:07:41.635Z,99520.71
2019-03-17T05:10:11.119Z,99526.82
2019-03-17T05:12:40.302Z,99541.09
2019-03-17T05:15:11.023Z,99544.35
2019-03-17T05:17:40.132Z,99548.70
2019-03-17T05:20:11.282Z,99559.78
2019-03-17T05:22:40.381Z,99570.66
2019-03-17T05:25:09.509Z,99576.97
2019-03-17T05:27:38.643Z,99572.77
2019-03-17T05:30:12.278Z,99576.16
2019-03-17T05:32:44.847Z,99571.48
2019-03-17T05:35:20.609Z,99579.02
2019-03-17T05:37:53.516Z,99572.18
2019-03-17T05:40:22.928Z,99572.41
2019-03-17T05:42:52.547Z,99572.98
2019-03-17T05:45:21.529Z,99575.09
2019-03-17T05:47:50.793Z,99590.41
2019-03-17T05:50:36.492Z,99585.47
2019-03-17T05:53:01.504Z,99578.31
2019-03-17T05:55:30.794Z,99580.57
2019-03-17T05:57:59.891Z,99580.50
2019-03-17T06:00:29.674Z,99586.73
2019-03-17T06:03:00.193Z,99578.74
2019-03-17T06:05:29.320Z,99588.45
2019-03-17T06:07:59.042Z,99593.47
2019-03-17T06:10:28.538Z,99606.81
2019-03-17T06:12:59.539Z,99608.00
2019-03-17T06:15:29.314Z,99599.83
2019-03-17T06:17:59.577Z,99596.09
2019-03-17T06:20:29.069Z,99605.75
2019-03-17T06:22:57.618Z,99616.88
2019-03-17T06:25:26.738Z,99624.42
2019-03-17T06:27:55.924Z,99623.64
2019-03-17T06:30:25.085Z,99620.95
2019-03-17T06:32:54.249Z,99623.76
2019-03-17T06:35:23.810Z,99627.77
2019-03-17T06:37:55.619Z,99628.36
2019-03-17T06:40:32.422Z,99632.27
2019-03-17T06:43:08.586Z,99633.72
2019-03-17T06:45:41.667Z,99642.20
2019-03-17T06:48:22.558Z,99649.85
2019-03-17T06:50:59.032Z,99654.02
2019-03-17T06:53:33.301Z,99668.25
2019-03-17T06:56:10.963Z,99684.31
2019-03-17T06:58:45.037Z,99689.66
2019-03-17T07:01:14.132Z,99675.88
2019-03-17T07:03:47.856Z,99671.88
2019-03-17T07:06:17.707Z,99673.98
2019-03-17T07:08:47.592Z,99684.34
2019-03-17T07:11:44.502Z,99694.83
2019-03-17T07:14:18.127Z,99701.76
2019-03-17T07:16:47.436Z,99709.47
2019-03-17T07:22:40.216Z,99716.70
2019-03-17T07:25:09.990Z,99722.16
2019-03-17T07:27:50.518Z,99729.13
2019-03-17T07:30:23.062Z,99736.27
2019-03-17T07:33:06.722Z,99739.14
2019-03-17T07:35:47.871Z,99747.58
2019-03-17T07:39:31.532Z,99746.80
2019-03-17T07:41:22.879Z,99751.14
2019-03-17T07:44:49.280Z,99755.21
2019-03-17T07:47:00.308Z,99762.66
2019-03-17T07:49:50.059Z,99765.12
2019-03-17T07:52:28.342Z,99758.56
2019-03-17T07:54:58.192Z,99765.56
2019-03-17T07:57:53.243Z,99770.68
2019-03-17T08:01:01.047Z,99770.34
2019-03-17T08:04:01.688Z,99772.81
2019-03-17T08:06:09.743Z,99769.55
2019-03-17T08:08:50.765Z,99773.56
2019-03-17T08:11:20.764Z,99779.55
2019-03-17T08:19:48.075Z,99784.17
2019-03-17T08:22:29.227Z,99782.25
2019-03-17T08:44:35.613Z,99835.20
2019-03-17T08:44:43.070Z,99814.77
2019-03-17T08:47:57.471Z,99836.38
2019-03-17T08:52:27.715Z,99845.08
2019-03-17T08:59:20.979Z,99848.27
2019-03-17T09:07:48.103Z,99861.97
2019-03-17T09:12:11.759Z,99872.08
2019-03-17T09:19:34.418Z,99877.88
2019-03-17T09:22:51.941Z,99890.08
2019-03-17T09:28:54.448Z,99890.78
2019-03-17T09:38:20.969Z,99898.83
2019-03-17T09:41:24.515Z,99897.80
2019-03-17T09:54:57.173Z,99918.16
2019-03-17T10:05:26.338Z,99907.92
2019-03-17T10:07:58.548Z,99912.81
2019-03-17T10:22:12.011Z,99930.95
2019-03-17T10:42:12.292Z,99986.72
2019-03-17T10:44:58.034Z,99972.93
2019-03-17T10:47:22.179Z,99976.56
2019-03-17T10:50:07.252Z,99974.59
2019-03-17T10:56:07.189Z,99985.49
2019-03-17T10:58:36.342Z,99984.67
2019-03-17T11:01:46.135Z,99986.41
2019-03-17T11:04:38.952Z,99999.98
2019-03-17T11:11:08.046Z,100011.91
2019-03-17T11:16:59.128Z,100014.63
2019-03-17T11:26:01.699Z,100034.95
2019-03-17T11:28:34.048Z,100044.33
2019-03-17T11:31:07.284Z,100044.34
2019-03-17T11:34:04.835Z,100047.97
2019-03-17T11:43:32.430Z,100045.91
2019-03-17T11:52:27.092Z,100062.13
2019-03-17T11:55:27.998Z,100067.47
2019-03-17T11:58:40.192Z,100081.48
2019-03-17T12:01:04.718Z,100072.57
2019-03-17T12:03:34.655Z,100072.56
2019-03-17T12:06:03.929Z,100076.02
2019-03-17T12:08:45.352Z,100076.25
2019-03-17T12:17:16.689Z,100107.52
2019-03-17T12:19:47.565Z,100110.95
2019-03-17T12:22:38.657Z,100118.53
2019-03-17T12:25:32.104Z,100124.16
2019-03-17T12:28:18.205Z,100120.64
2019-03-17T12:37:04.229Z,100122.22
2019-03-17T12:39:41.043Z,100121.84
2019-03-17T12:42:14.285Z,100123.59
2019-03-17T12:44:49.836Z,100138.50
2019-03-17T12:47:24.302Z,100133.31
2019-03-17T12:50:02.436Z,100132.81
2019-03-17T12:52:43.676Z,100138.13
2019-03-17T12:55:20.296Z,100146.87
2019-03-17T12:59:15.609Z,100142.41
2019-03-17T13:04:22.322Z,100145.32
2019-03-17T13:10:15.000Z,100155.97
2019-03-17T13:16:20.559Z,100168.47
2019-03-17T13:22:21.282Z,100182.38
2019-03-17T13:25:53.273Z,100181.82
2019-03-17T13:31:20.461Z,100183.25
2019-03-17T13:34:07.733Z,100192.50
2019-03-17T13:39:51.124Z,100196.17
2019-03-17T13:42:35.182Z,100197.41
2019-03-17T13:45:35.582Z,100210.12
2019-03-17T13:48:40.213Z,100217.02
2019-03-17T13:51:06.278Z,100219.83
2019-03-17T13:53:55.636Z,100223.73
2019-03-17T13:59:49.647Z,100231.88
2019-03-17T14:02:54.183Z,100245.17
2019-03-17T14:09:07.280Z,100246.30
2019-03-17T14:12:26.809Z,100250.49
2019-03-17T14:18:45.112Z,100249.83
2019-03-17T14:21:12.674Z,100260.28
2019-03-17T14:24:14.506Z,100275.78
2019-03-17T14:29:19.948Z,100260.80
2019-03-17T14:31:57.748Z,100269.08
2019-03-17T14:34:57.240Z,100275.59
2019-03-17T14:37:29.227Z,100279.53
2019-03-17T14:40:19.757Z,100290.20
2019-03-17T14:46:35.566Z,100306.25
2019-03-17T14:49:33.342Z,100303.73
2019-03-17T14:52:19.919Z,100299.81
2019-03-17T14:54:55.279Z,100299.41
2019-03-17T15:04:06.506Z,100311.37
2019-03-17T15:06:50.999Z,100307.20
2019-03-17T15:09:08.025Z,100305.75
2019-03-17T15:11:51.684Z,100310.03
2019-03-17T15:15:25.433Z,100315.78
2019-03-17T15:18:24.218Z,100314.33
2019-03-17T15:21:09.345Z,100321.97
2019-03-17T15:26:42.046Z,100324.11
2019-03-17T15:29:11.319Z,100328.98
2019-03-17T15:31:57.905Z,100326.86
2019-03-17T15:34:24.627Z,100324.68
2019-03-17T15:36:57.059Z,100334.19
2019-03-17T15:39:34.405Z,100340.09
2019-03-17T15:42:14.339Z,100342.97
2019-03-17T15:44:45.863Z,100342.13
2019-03-17T15:47:38.596Z,100347.91
2019-03-17T15:50:26.007Z,100354.98
2019-03-17T15:53:33.730Z,100359.30
2019-03-17T15:59:30.488Z,100371.28
2019-03-17T16:26:23.172Z,100396.50
2019-03-17T16:28:54.992Z,100403.98
2019-03-17T16:32:00.677Z,100410.00
2019-03-17T16:37:20.100Z,100422.48
2019-03-17T16:43:00.919Z,100433.37
2019-03-17T16:45:44.606Z,100436.56
2019-03-17T16:48:42.097Z,100439.34
2019-03-17T16:51:27.509Z,100448.60
2019-03-17T16:56:40.807Z,100452.95
2019-03-17T16:59:14.152Z,100450.16
2019-03-17T17:02:16.313Z,100457.56
2019-03-17T17:04:51.298Z,100463.09
2019-03-17T17:13:42.664Z,100468.41
2019-03-17T17:16:29.499Z,100475.39
2019-03-17T17:19:06.696Z,100482.11
2019-03-17T17:21:52.828Z,100482.94
2019-03-17T17:24:58.790Z,100483.12
2019-03-17T17:27:27.955Z,100499.13
2019-03-17T17:30:14.323Z,100500.75
2019-03-17T17:32:54.582Z,100511.73
2019-03-17T17:35:27.397Z,100512.03
2019-03-17T17:38:02.747Z,100509.80
2019-03-17T17:40:40.789Z,100511.67
2019-03-17T17:46:11.014Z,100516.78
2019-03-17T17:48:40.128Z,100519.56
2019-03-17T17:51:17.866Z,100525.81
2019-03-17T17:53:47.057Z,100524.52
2019-03-17T17:56:22.562Z,100529.33
2019-03-17T18:01:44.362Z,100532.36
2019-03-17T18:04:13.542Z,100540.72
2019-03-17T18:06:44.683Z,100544.17
2019-03-17T18:09:13.824Z,100549.87
2019-03-17T18:11:42.945Z,100553.70
2019-03-17T18:14:12.059Z,100555.44
2019-03-17T18:16:41.853Z,100553.23
2019-03-17T18:19:11.072Z,100556.86
2019-03-17T18:21:40.190Z,100555.03
2019-03-17T18:24:45.069Z,100563.59
2019-03-17T18:27:14.175Z,100559.18
2019-03-17T18:29:43.301Z,100561.66
2019-03-17T18:32:12.448Z,100565.84
2019-03-17T18:34:41.584Z,100570.50
2019-03-17T18:37:10.729Z,100572.47
2019-03-17T18:39:39.837Z,100570.91
2019-03-17T18:42:08.960Z,100568.67
2019-03-17T18:44:38.092Z,100571.55
2019-03-17T18:47:07.226Z,100578.50
2019-03-17T18:49:36.379Z,100581.53
2019-03-17T18:52:05.561Z,100582.69
2019-03-17T18:54:34.723Z,100582.79
2019-03-17T18:57:03.850Z,100586.39
2019-03-17T18:59:32.983Z,100588.02
2019-03-17T19:02:02.187Z,100583.66
2019-03-17T19:04:31.334Z,100579.87
2019-03-17T19:07:00.445Z,100574.81
2019-03-17T19:09:29.585Z,100574.55
2019-03-17T19:11:58.983Z,100576.13
2019-03-17T19:14:28.107Z,100575.41
2019-03-17T19:16:57.260Z,100578.07
2019-03-17T19:19:26.402Z,100582.30
2019-03-17T19:22:01.705Z,100583.13
2019-03-17T19:24:30.912Z,100590.75
2019-03-17T19:27:00.019Z,100597.17
2019-03-17T19:29:29.139Z,100597.28
2019-03-17T19:31:58.363Z,100597.19
2019-03-17T19:34:27.488Z,100599.98
2019-03-17T19:36:58.744Z,100601.33
2019-03-17T19:39:28.119Z,100605.75
2019-03-17T19:41:57.270Z,100610.25
2019-03-17T19:44:27.989Z,100616.35
2019-03-17T19:46:57.143Z,100616.48
2019-03-17T19:49:26.276Z,100618.16
2019-03-17T19:51:56.293Z,100618.08
2019-03-17T19:54:25.406Z,100617.00
2019-03-17T19:56:57.395Z,100619.80
2019-03-17T19:59:26.519Z,100621.47
2019-03-17T20:01:55.740Z,100620.60
2019-03-17T20:04:30.451Z,100626.41
2019-03-17T20:06:57.596Z,100634.75
2019-03-17T20:09:26.753Z,100631.58
2019-03-17T20:11:56.568Z,100635.76
2019-03-17T20:14:25.746Z,100635.30
2019-03-17T20:16:54.915Z,100635.00
2019-03-17T20:19:24.494Z,100633.42
2019-03-17T20:21:53.007Z,100636.84
2019-03-17T20:24:22.937Z,100636.06
2019-03-17T20:26:52.084Z,100643.63
2019-03-17T20:29:21.169Z,100652.47
2019-03-17T20:31:50.322Z,100654.63
2019-03-17T20:34:20.315Z,100654.11
2019-03-17T20:36:49.684Z,100650.79
2019-03-17T20:39:18.767Z,100657.05
2019-03-17T20:41:48.373Z,100652.64
2019-03-17T20:44:18.431Z,100653.39
2019-03-17T20:46:47.834Z,100656.55
2019-03-17T20:49:16.313Z,100653.23
2019-03-17T20:51:54.870Z,100656.98
2019-03-17T20:54:23.992Z,100663.84
2019-03-17T20:56:53.111Z,100662.73
2019-03-17T20:59:23.138Z,100671.19
2019-03-17T21:01:52.288Z,100669.48
2019-03-17T21:04:21.416Z,100677.92
2019-03-17T21:06:50.586Z,100680.28
2019-03-17T21:09:19.711Z,100684.30
2019-03-17T21:11:48.830Z,100682.26
2019-03-17T21:14:17.954Z,100681.91
2019-03-17T21:16:47.075Z,100686.40
2019-03-17T21:19:16.199Z,100683.98
2019-03-17T21:21:45.411Z,100677.09
2019-03-17T21:24:14.518Z,100675.48
2019-03-17T21:26:43.637Z,100682.34
2019-03-17T21:29:12.792Z,100687.19
2019-03-17T21:31:41.931Z,100682.97
2019-03-17T21:34:11.011Z,100683.95
2019-03-17T21:36:40.493Z,100681.28
2019-03-17T21:39:08.968Z,100682.33
2019-03-17T21:41:38.047Z,100689.77
2019-03-17T21:44:07.196Z,100694.05
2019-03-17T21:46:36.307Z,100689.92
2019-03-17T21:49:05.413Z,100692.72
2019-03-17T21:51:34.535Z,100691.66
2019-03-17T21:54:03.661Z,100688.85
2019-03-17T21:56:32.783Z,100693.83
2019-03-17T21:59:01.906Z,100703.72
2019-03-17T22:01:31.013Z,100702.70
2019-03-17T22:04:00.140Z,100697.86
2019-03-17T22:06:29.293Z,100700.34
2019-03-17T22:08:58.436Z,100697.03
2019-03-17T22:11:27.588Z,100703.11
2019-03-17T22:13:56.723Z,100706.16
2019-03-17T22:16:25.860Z,100711.17
2019-03-17T22:18:54.972Z,100712.48
2019-03-17T22:21:24.429Z,100703.86
2019-03-17T22:23:53.547Z,100705.66
2019-03-17T22:26:22.667Z,100707.70
2019-03-17T22:28:51.798Z,100715.84
2019-03-17T22:31:20.914Z,100709.23
2019-03-17T22:33:50.036Z,100708.41
2019-03-17T22:36:19.173Z,100711.91
2019-03-17T22:38:48.288Z,100714.16
2019-03-17T22:41:17.403Z,100723.16
2019-03-17T22:43:46.534Z,100723.00
2019-03-17T22:46:15.653Z,100725.20
2019-03-17T22:48:44.762Z,100734.39
2019-03-17T22:51:13.961Z,100735.68
2019-03-17T22:53:43.153Z,100744.39
2019-03-17T22:56:12.279Z,100742.93
2019-03-17T22:58:41.409Z,100744.47
2019-03-17T23:01:10.522Z,100739.33
2019-03-17T23:03:39.638Z,100741.38
2019-03-17T23:06:08.762Z,100744.00
2019-03-17T23:08:37.884Z,100749.50
2019-03-17T23:11:07.076Z,100756.98
2019-03-17T23:13:36.189Z,100756.88
2019-03-17T23:16:05.303Z,100779.94
2019-03-17T23:18:34.670Z,100776.74
2019-03-17T23:21:03.863Z,100785.05
2019-03-17T23:23:32.979Z,100790.45
2019-03-17T23:26:02.110Z,100783.30
2019-03-17T23:28:31.332Z,100791.39
2019-03-17T23:31:00.447Z,100778.33
2019-03-17T23:33:29.573Z,100776.42
2019-03-17T23:35:58.699Z,100779.94
2019-03-17T23:38:27.809Z,100775.51
2019-03-17T23:40:56.923Z,100785.78
2019-03-17T23:43:26.129Z,100784.48
2019-03-17T23:45:55.243Z,100794.66
2019-03-17T23:48:24.357Z,100794.18
2019-03-17T23:50:53.498Z,100796.44
2019-03-17T23:53:22.623Z,100794.39
2019-03-17T23:55:51.728Z,100805.21
2019-03-17T23:58:20.870Z,100803.58
